Friesland, Wisconsin
Current Conditions -  °F | °C
As of 5:55 AM on Sunday 25 Jan 2015 (Local Time) from KUNU Reporting Station
Overcast Overcast  
Wind Chill: 10°   Ceiling: 1800
Heat Index: 23°   Visibility: 10mi
Dew Point: 18°   Wind: 15mph
Humidity: 82%   Direction: 30°NNE
Pressure: 29.81"   Gusts: 22mph
Location:  43.59°N, 89.07°W
Report Text: KUNU 251155Z AUTO 03013G19KT 10SM BKN018 OVC044 M05/M08 A2981 RMK AO2 T10491076 11004 21049
Loading
Personal Weather Stations






























Interactive Weather Map New forecast layout! Learn more

10-Day Weather Forecast

Advertisements
Track Severe Weather on mobile